sensor_id;sensor_type;location;lat;lon;timestamp;pressure;altitude;pressure_sealevel;temperature;humidity
76623;BME280;73145;48.170;16.350;2023-10-09T00:01:17;100624.19;;;14.29;57.23
76623;BME280;73145;48.170;16.350;2023-10-09T00:03:46;100613.38;;;14.24;57.15
76623;BME280;73145;48.170;16.350;2023-10-09T00:06:18;100618.25;;;14.22;57.52
76623;BME280;73145;48.170;16.350;2023-10-09T00:08:49;100608.78;;;14.19;57.63
76623;BME280;73145;48.170;16.350;2023-10-09T00:11:19;100611.50;;;14.19;57.79
76623;BME280;73145;48.170;16.350;2023-10-09T00:13:46;100614.19;;;14.19;58.03
76623;BME280;73145;48.170;16.350;2023-10-09T00:16:21;100606.34;;;14.18;58.02
76623;BME280;73145;48.170;16.350;2023-10-09T00:19:06;100594.50;;;14.19;58.05
76623;BME280;73145;48.170;16.350;2023-10-09T00:21:58;100590.72;;;14.20;58.19
76623;BME280;73145;48.170;16.350;2023-10-09T00:24:28;100595.84;;;14.21;57.80
76623;BME280;73145;48.170;16.350;2023-10-09T00:26:54;100604.75;;;14.22;57.66
76623;BME280;73145;48.170;16.350;2023-10-09T00:29:39;100600.44;;;14.21;57.95
76623;BME280;73145;48.170;16.350;2023-10-09T00:32:13;100600.69;;;14.19;57.84
76623;BME280;73145;48.170;16.350;2023-10-09T00:34:40;100593.44;;;14.20;58.05
76623;BME280;73145;48.170;16.350;2023-10-09T00:37:09;100596.66;;;14.22;57.81
76623;BME280;73145;48.170;16.350;2023-10-09T00:39:42;100592.63;;;14.24;58.09
76623;BME280;73145;48.170;16.350;2023-10-09T00:42:10;100585.34;;;14.25;57.91
76623;BME280;73145;48.170;16.350;2023-10-09T00:44:38;100582.38;;;14.26;57.96
76623;BME280;73145;48.170;16.350;2023-10-09T00:47:14;100569.44;;;14.28;57.87
76623;BME280;73145;48.170;16.350;2023-10-09T00:49:58;100568.63;;;14.28;57.92
76623;BME280;73145;48.170;16.350;2023-10-09T00:52:34;100565.66;;;14.24;57.98
76623;BME280;73145;48.170;16.350;2023-10-09T00:55:21;100562.16;;;14.24;58.04
76623;BME280;73145;48.170;16.350;2023-10-09T00:58:01;100558.38;;;14.25;58.19
76623;BME280;73145;48.170;16.350;2023-10-09T01:00:30;100558.38;;;14.25;57.99
76623;BME280;73145;48.170;16.350;2023-10-09T01:03:16;100549.75;;;14.23;57.79
76623;BME280;73145;48.170;16.350;2023-10-09T01:05:47;100541.66;;;14.23;58.17
76623;BME280;73145;48.170;16.350;2023-10-09T01:08:27;100538.44;;;14.21;58.05
76623;BME280;73145;48.170;16.350;2023-10-09T01:11:11;100533.31;;;14.19;58.19
76623;BME280;73145;48.170;16.350;2023-10-09T01:13:57;100524.94;;;14.21;57.81
76623;BME280;73145;48.170;16.350;2023-10-09T01:16:40;100526.28;;;14.18;57.92
76623;BME280;73145;48.170;16.350;2023-10-09T01:19:09;100523.84;;;14.17;58.51
76623;BME280;73145;48.170;16.350;2023-10-09T01:21:39;100530.88;;;14.18;57.98
76623;BME280;73145;48.170;16.350;2023-10-09T01:24:07;100512.28;;;14.16;58.40
76623;BME280;73145;48.170;16.350;2023-10-09T01:26:38;100521.16;;;14.17;58.33
76623;BME280;73145;48.170;16.350;2023-10-09T01:29:14;100524.94;;;14.16;58.79
76623;BME280;73145;48.170;16.350;2023-10-09T01:31:42;100526.56;;;14.17;58.76
76623;BME280;73145;48.170;16.350;2023-10-09T01:34:11;100503.91;;;14.18;58.76
76623;BME280;73145;48.170;16.350;2023-10-09T01:36:40;100510.91;;;14.19;58.95
76623;BME280;73145;48.170;16.350;2023-10-09T01:39:06;100505.53;;;14.19;59.40
76623;BME280;73145;48.170;16.350;2023-10-09T01:41:52;100509.03;;;14.19;59.32
76623;BME280;73145;48.170;16.350;2023-10-09T01:44:23;100511.72;;;14.19;59.56
76623;BME280;73145;48.170;16.350;2023-10-09T01:46:50;100503.38;;;14.21;59.48
76623;BME280;73145;48.170;16.350;2023-10-09T01:49:17;100497.44;;;14.19;59.61
76623;BME280;73145;48.170;16.350;2023-10-09T01:51:47;100489.09;;;14.20;59.87
76623;BME280;73145;48.170;16.350;2023-10-09T01:54:15;100488.00;;;14.16;60.05
76623;BME280;73145;48.170;16.350;2023-10-09T01:56:49;100479.63;;;14.13;60.30
76623;BME280;73145;48.170;16.350;2023-10-09T01:59:17;100481.81;;;14.16;60.43
76623;BME280;73145;48.170;16.350;2023-10-09T02:01:43;100488.00;;;14.16;60.29
76623;BME280;73145;48.170;16.350;2023-10-09T02:04:13;100494.47;;;14.15;60.38
76623;BME280;73145;48.170;16.350;2023-10-09T02:06:39;100480.72;;;14.17;60.55
76623;BME280;73145;48.170;16.350;2023-10-09T02:09:05;100482.06;;;14.19;60.57
76623;BME280;73145;48.170;16.350;2023-10-09T02:11:32;100471.56;;;14.18;60.62
76623;BME280;73145;48.170;16.350;2023-10-09T02:14:08;100470.47;;;14.19;60.61
76623;BME280;73145;48.170;16.350;2023-10-09T02:16:47;100467.25;;;14.22;60.74
76623;BME280;73145;48.170;16.350;2023-10-09T02:19:29;100465.09;;;14.19;60.99
76623;BME280;73145;48.170;16.350;2023-10-09T02:22:02;100450.00;;;14.23;60.64
76623;BME280;73145;48.170;16.350;2023-10-09T02:24:44;100447.56;;;14.26;60.64
76623;BME280;73145;48.170;16.350;2023-10-09T02:27:13;100445.69;;;14.27;60.61
76623;BME280;73145;48.170;16.350;2023-10-09T02:29:45;100438.41;;;14.27;60.78
76623;BME280;73145;48.170;16.350;2023-10-09T02:32:12;100443.25;;;14.30;60.69
76623;BME280;73145;48.170;16.350;2023-10-09T02:34:40;100433.28;;;14.31;60.63
76623;BME280;73145;48.170;16.350;2023-10-09T02:37:06;100421.94;;;14.34;60.37
76623;BME280;73145;48.170;16.350;2023-10-09T02:39:36;100429.22;;;14.39;60.57
76623;BME280;73145;48.170;16.350;2023-10-09T02:42:13;100429.53;;;14.42;60.22
76623;BME280;73145;48.170;16.350;2023-10-09T02:44:38;100427.88;;;14.41;60.23
76623;BME280;73145;48.170;16.350;2023-10-09T02:47:15;100421.44;;;14.42;60.21
76623;BME280;73145;48.170;16.350;2023-10-09T02:49:54;100418.75;;;14.42;60.10
76623;BME280;73145;48.170;16.350;2023-10-09T02:52:25;100415.22;;;14.37;59.94
76623;BME280;73145;48.170;16.350;2023-10-09T02:54:57;100404.16;;;14.33;60.22
76623;BME280;73145;48.170;16.350;2023-10-09T02:57:31;100403.09;;;14.29;60.36
76623;BME280;73145;48.170;16.350;2023-10-09T03:00:06;100397.41;;;14.25;60.01
76623;BME280;73145;48.170;16.350;2023-10-09T03:02:43;100402.28;;;14.23;60.16
76623;BME280;73145;48.170;16.350;2023-10-09T03:05:15;100398.78;;;14.23;60.15
76623;BME280;73145;48.170;16.350;2023-10-09T03:07:41;100391.22;;;14.25;59.92
76623;BME280;73145;48.170;16.350;2023-10-09T03:10:07;100386.38;;;14.22;59.83
76623;BME280;73145;48.170;16.350;2023-10-09T03:12:36;100386.38;;;14.22;59.71
76623;BME280;73145;48.170;16.350;2023-10-09T03:15:02;100377.19;;;14.18;60.36
76623;BME280;73145;48.170;16.350;2023-10-09T03:17:31;100369.66;;;14.15;60.01
76623;BME280;73145;48.170;16.350;2023-10-09T03:20:01;100363.47;;;14.14;60.31
76623;BME280;73145;48.170;16.350;2023-10-09T03:22:27;100366.41;;;14.13;60.06
76623;BME280;73145;48.170;16.350;2023-10-09T03:24:52;100370.47;;;14.10;60.06
76623;BME280;73145;48.170;16.350;2023-10-09T03:27:18;100356.19;;;14.10;59.98
76623;BME280;73145;48.170;16.350;2023-10-09T03:29:44;100350.78;;;14.10;60.54
76623;BME280;73145;48.170;16.350;2023-10-09T03:32:29;100347.81;;;14.11;60.34
76623;BME280;73145;48.170;16.350;2023-10-09T03:34:54;100343.78;;;14.09;60.53
76623;BME280;73145;48.170;16.350;2023-10-09T03:37:20;100341.09;;;14.03;60.67
76623;BME280;73145;48.170;16.350;2023-10-09T03:39:47;100341.63;;;14.00;61.04
76623;BME280;73145;48.170;16.350;2023-10-09T03:42:15;100338.41;;;14.03;60.72
76623;BME280;73145;48.170;16.350;2023-10-09T03:44:47;100330.03;;;14.10;60.84
76623;BME280;73145;48.170;16.350;2023-10-09T03:47:22;100327.34;;;14.10;60.85
76623;BME280;73145;48.170;16.350;2023-10-09T03:49:51;100313.59;;;14.12;61.22
76623;BME280;73145;48.170;16.350;2023-10-09T03:52:18;100315.22;;;14.08;61.61
76623;BME280;73145;48.170;16.350;2023-10-09T03:54:44;100299.03;;;14.08;61.14
76623;BME280;73145;48.170;16.350;2023-10-09T03:57:12;100304.97;;;14.10;60.87
76623;BME280;73145;48.170;16.350;2023-10-09T03:59:45;100298.22;;;14.07;61.20
76623;BME280;73145;48.170;16.350;2023-10-09T04:02:13;100300.66;;;14.03;61.45
76623;BME280;73145;48.170;16.350;2023-10-09T04:04:38;100285.31;;;13.99;61.49
76623;BME280;73145;48.170;16.350;2023-10-09T04:07:04;100287.47;;;13.97;61.59
76623;BME280;73145;48.170;16.350;2023-10-09T04:09:31;100283.16;;;13.96;61.69
76623;BME280;73145;48.170;16.350;2023-10-09T04:12:05;100276.41;;;13.98;61.34
76623;BME280;73145;48.170;16.350;2023-10-09T04:14:40;100282.34;;;14.00;61.23
76623;BME280;73145;48.170;16.350;2023-10-09T04:17:16;100261.88;;;13.94;61.27
76623;BME280;73145;48.170;16.350;2023-10-09T04:20:05;100263.75;;;13.94;61.45
76623;BME280;73145;48.170;16.350;2023-10-09T04:23:00;100271.84;;;13.94;61.49
76623;BME280;73145;48.170;16.350;2023-10-09T04:25:30;100265.38;;;13.90;61.70
76623;BME280;73145;48.170;16.350;2023-10-09T04:28:06;100260.50;;;13.82;61.83
76623;BME280;73145;48.170;16.350;2023-10-09T04:30:41;100248.91;;;13.76;62.04
76623;BME280;73145;48.170;16.350;2023-10-09T04:33:12;100250.28;;;13.74;62.33
76623;BME280;73145;48.170;16.350;2023-10-09T04:36:07;100262.41;;;13.71;61.87
76623;BME280;73145;48.170;16.350;2023-10-09T04:38:45;100261.31;;;13.67;62.13
76623;BME280;73145;48.170;16.350;2023-10-09T04:41:40;100263.75;;;13.63;61.89
76623;BME280;73145;48.170;16.350;2023-10-09T04:44:09;100255.38;;;13.60;62.14
76623;BME280;73145;48.170;16.350;2023-10-09T04:46:43;100248.38;;;13.59;62.02
76623;BME280;73145;48.170;16.350;2023-10-09T04:49:12;100238.97;;;13.61;62.21
76623;BME280;73145;48.170;16.350;2023-10-09T04:51:53;100237.63;;;13.59;61.80
76623;BME280;73145;48.170;16.350;2023-10-09T04:54:34;100223.88;;;13.50;61.87
76623;BME280;73145;48.170;16.350;2023-10-09T04:57:25;100226.31;;;13.42;62.37
76623;BME280;73145;48.170;16.350;2023-10-09T04:59:51;100224.97;;;13.34;62.27
76623;BME280;73145;48.170;16.350;2023-10-09T05:02:17;100216.59;;;13.30;62.64
76623;BME280;73145;48.170;16.350;2023-10-09T05:04:46;100215.00;;;13.29;62.41
76623;BME280;73145;48.170;16.350;2023-10-09T05:07:13;100209.06;;;13.27;62.78
76623;BME280;73145;48.170;16.350;2023-10-09T05:10:10;100200.72;;;13.29;62.44
76623;BME280;73145;48.170;16.350;2023-10-09T05:12:43;100190.22;;;13.32;62.26
76623;BME280;73145;48.170;16.350;2023-10-09T05:15:13;100184.31;;;13.35;62.42
76623;BME280;73145;48.170;16.350;2023-10-09T05:17:40;100175.41;;;13.35;62.53
76623;BME280;73145;48.170;16.350;2023-10-09T05:20:11;100171.38;;;13.32;62.47
76623;BME280;73145;48.170;16.350;2023-10-09T05:23:05;100154.16;;;13.33;62.77
76623;BME280;73145;48.170;16.350;2023-10-09T05:25:48;100144.47;;;13.37;62.16
76623;BME280;73145;48.170;16.350;2023-10-09T05:28:21;100146.34;;;13.42;61.96
76623;BME280;73145;48.170;16.350;2023-10-09T05:31:19;100146.34;;;13.47;62.36
76623;BME280;73145;48.170;16.350;2023-10-09T05:34:02;100138.53;;;13.51;62.02
76623;BME280;73145;48.170;16.350;2023-10-09T05:36:31;100142.28;;;13.50;61.67
76623;BME280;73145;48.170;16.350;2023-10-09T05:39:00;100150.38;;;13.45;61.51
76623;BME280;73145;48.170;16.350;2023-10-09T05:41:45;100151.72;;;13.37;61.91
76623;BME280;73145;48.170;16.350;2023-10-09T05:44:16;100135.59;;;13.32;61.59
76623;BME280;73145;48.170;16.350;2023-10-09T05:47:00;100139.63;;;13.29;61.68
76623;BME280;73145;48.170;16.350;2023-10-09T05:50:00;100138.81;;;13.34;61.61
76623;BME280;73145;48.170;16.350;2023-10-09T05:52:35;100141.22;;;13.35;61.53
76623;BME280;73145;48.170;16.350;2023-10-09T05:55:03;100144.44;;;13.43;61.03
76623;BME280;73145;48.170;16.350;2023-10-09T05:57:47;100133.13;;;13.46;60.79
76623;BME280;73145;48.170;16.350;2023-10-09T06:00:31;100128.03;;;13.44;61.17
76623;BME280;73145;48.170;16.350;2023-10-09T06:03:15;100123.44;;;13.45;61.19
76623;BME280;73145;48.170;16.350;2023-10-09T06:05:43;100118.06;;;13.45;60.95
76623;BME280;73145;48.170;16.350;2023-10-09T06:08:27;100112.13;;;13.48;60.87
76623;BME280;73145;48.170;16.350;2023-10-09T06:11:13;100100.00;;;13.50;60.90
76623;BME280;73145;48.170;16.350;2023-10-09T06:13:58;100096.75;;;13.58;60.68
76623;BME280;73145;48.170;16.350;2023-10-09T06:16:38;100094.03;;;13.68;60.52
76623;BME280;73145;48.170;16.350;2023-10-09T06:19:04;100083.25;;;13.74;60.07
76623;BME280;73145;48.170;16.350;2023-10-09T06:21:47;100091.03;;;13.80;59.99
76623;BME280;73145;48.170;16.350;2023-10-09T06:24:19;100102.91;;;13.89;59.50
76623;BME280;73145;48.170;16.350;2023-10-09T06:26:45;100109.59;;;13.97;59.44
76623;BME280;73145;48.170;16.350;2023-10-09T06:29:39;100107.94;;;14.06;59.39
76623;BME280;73145;48.170;16.350;2023-10-09T06:32:14;100093.38;;;14.07;58.61
76623;BME280;73145;48.170;16.350;2023-10-09T06:34:46;100097.66;;;14.13;58.52
76623;BME280;73145;48.170;16.350;2023-10-09T06:37:17;100093.03;;;14.24;58.44
76623;BME280;73145;48.170;16.350;2023-10-09T06:40:00;100092.41;;;14.37;58.49
76623;BME280;73145;48.170;16.350;2023-10-09T06:42:44;100087.53;;;14.49;58.10
76623;BME280;73145;48.170;16.350;2023-10-09T06:45:16;100086.66;;;14.59;57.81
76623;BME280;73145;48.170;16.350;2023-10-09T06:47:51;100064.22;;;14.63;57.65
76623;BME280;73145;48.170;16.350;2023-10-09T06:50:42;100054.50;;;14.68;57.65
76623;BME280;73145;48.170;16.350;2023-10-09T06:53:26;100053.34;;;14.74;57.01
76623;BME280;73145;48.170;16.350;2023-10-09T06:56:11;100066.81;;;14.84;56.97
76623;BME280;73145;48.170;16.350;2023-10-09T06:58:48;100055.91;;;14.94;56.96
76623;BME280;73145;48.170;16.350;2023-10-09T07:01:14;100063.13;;;15.04;56.85
76623;BME280;73145;48.170;16.350;2023-10-09T07:04:05;100048.44;;;15.15;56.25
76623;BME280;73145;48.170;16.350;2023-10-09T07:06:50;100048.09;;;15.21;56.18
76623;BME280;73145;48.170;16.350;2023-10-09T07:09:18;100051.31;;;15.23;55.86
76623;BME280;73145;48.170;16.350;2023-10-09T07:11:50;100061.03;;;15.24;56.05
76623;BME280;73145;48.170;16.350;2023-10-09T07:14:18;100055.13;;;15.22;55.91
76623;BME280;73145;48.170;16.350;2023-10-09T07:17:10;100051.56;;;15.27;55.62
76623;BME280;73145;48.170;16.350;2023-10-09T07:19:52;100041.00;;;15.30;55.62
76623;BME280;73145;48.170;16.350;2023-10-09T07:22:22;100037.72;;;15.34;55.58
76623;BME280;73145;48.170;16.350;2023-10-09T07:24:47;100052.25;;;15.38;55.50
76623;BME280;73145;48.170;16.350;2023-10-09T07:27:26;100036.56;;;15.40;55.56
76623;BME280;73145;48.170;16.350;2023-10-09T07:30:13;100046.56;;;15.39;55.59
76623;BME280;73145;48.170;16.350;2023-10-09T07:32:50;100033.25;;;15.48;55.37
76623;BME280;73145;48.170;16.350;2023-10-09T07:35:20;100028.28;;;15.60;55.16
76623;BME280;73145;48.170;16.350;2023-10-09T07:38:05;100024.38;;;15.71;54.79
76623;BME280;73145;48.170;16.350;2023-10-09T07:40:37;100023.69;;;15.84;54.47
76623;BME280;73145;48.170;16.350;2023-10-09T07:43:26;100016.31;;;15.90;54.40
76623;BME280;73145;48.170;16.350;2023-10-09T07:45:56;100023.53;;;15.95;54.36
76623;BME280;73145;48.170;16.350;2023-10-09T07:48:31;100029.97;;;15.99;54.59
76623;BME280;73145;48.170;16.350;2023-10-09T07:51:20;100021.56;;;16.00;54.66
76623;BME280;73145;48.170;16.350;2023-10-09T07:54:05;100019.44;;;15.97;54.55
76623;BME280;73145;48.170;16.350;2023-10-09T07:56:43;100017.03;;;15.96;54.57
76623;BME280;73145;48.170;16.350;2023-10-09T07:59:12;100009.44;;;15.98;54.38
76623;BME280;73145;48.170;16.350;2023-10-09T08:01:45;100030.25;;;15.97;54.75
76623;BME280;73145;48.170;16.350;2023-10-09T08:04:26;100003.53;;;15.96;54.68
76623;BME280;73145;48.170;16.350;2023-10-09T08:07:08;100010.53;;;15.97;54.55
76623;BME280;73145;48.170;16.350;2023-10-09T08:09:35;99988.31;;;16.00;54.53
76623;BME280;73145;48.170;16.350;2023-10-09T08:12:14;99980.94;;;16.05;54.17
76623;BME280;73145;48.170;16.350;2023-10-09T08:15:06;99991.91;;;16.14;54.66
76623;BME280;73145;48.170;16.350;2023-10-09T08:17:53;99988.53;;;16.22;54.10
76623;BME280;73145;48.170;16.350;2023-10-09T08:20:23;99981.97;;;16.28;53.95
76623;BME280;73145;48.170;16.350;2023-10-09T08:22:55;99979.09;;;16.38;53.88
76623;BME280;73145;48.170;16.350;2023-10-09T08:25:25;99985.00;;;16.59;53.43
76623;BME280;73145;48.170;16.350;2023-10-09T08:28:15;100002.72;;;16.70;53.16
76623;BME280;73145;48.170;16.350;2023-10-09T08:30:59;99994.91;;;16.69;53.43
76623;BME280;73145;48.170;16.350;2023-10-09T08:33:29;99994.22;;;16.58;53.50
76623;BME280;73145;48.170;16.350;2023-10-09T08:36:15;99985.69;;;16.70;53.34
76623;BME280;73145;48.170;16.350;2023-10-09T08:38:47;99975.25;;;16.77;53.10
76623;BME280;73145;48.170;16.350;2023-10-09T08:41:13;99976.28;;;16.81;53.16
76623;BME280;73145;48.170;16.350;2023-10-09T08:43:49;99972.38;;;16.87;53.03
76623;BME280;73145;48.170;16.350;2023-10-09T08:46:19;99968.97;;;16.95;52.87
76623;BME280;73145;48.170;16.350;2023-10-09T08:48:45;99976.91;;;17.05;52.57
76623;BME280;73145;48.170;16.350;2023-10-09T08:51:11;99966.50;;;17.12;52.43
76623;BME280;73145;48.170;16.350;2023-10-09T08:53:38;99966.59;;;17.21;52.40
76623;BME280;73145;48.170;16.350;2023-10-09T08:56:09;99959.00;;;17.37;52.06
76623;BME280;73145;48.170;16.350;2023-10-09T08:58:34;99956.47;;;17.54;51.62
76623;BME280;73145;48.170;16.350;2023-10-09T09:01:03;99963.50;;;17.55;51.76
76623;BME280;73145;48.170;16.350;2023-10-09T09:03:39;99950.94;;;17.59;51.75
76623;BME280;73145;48.170;16.350;2023-10-09T09:06:06;99957.06;;;17.65;51.76
76623;BME280;73145;48.170;16.350;2023-10-09T09:08:33;99956.38;;;17.73;51.56
76623;BME280;73145;48.170;16.350;2023-10-09T09:16:33;99937.81;;;18.02;51.09
76623;BME280;73145;48.170;16.350;2023-10-09T09:19:05;99939.31;;;18.08;51.02
76623;BME280;73145;48.170;16.350;2023-10-09T09:21:38;99944.44;;;18.10;50.69
76623;BME280;73145;48.170;16.350;2023-10-09T09:24:09;99944.31;;;18.15;50.88
76623;BME280;73145;48.170;16.350;2023-10-09T09:26:42;99938.66;;;18.25;50.61
76623;BME280;73145;48.170;16.350;2023-10-09T09:29:12;99932.00;;;18.31;50.50
76623;BME280;73145;48.170;16.350;2023-10-09T09:31:56;99941.75;;;18.32;50.70
76623;BME280;73145;48.170;16.350;2023-10-09T09:34:43;99937.13;;;18.33;50.60
76623;BME280;73145;48.170;16.350;2023-10-09T09:37:10;99939.22;;;18.36;50.49
76623;BME280;73145;48.170;16.350;2023-10-09T09:39:40;99930.47;;;18.39;50.63
76623;BME280;73145;48.170;16.350;2023-10-09T09:42:08;99937.50;;;18.40;50.33
76623;BME280;73145;48.170;16.350;2023-10-09T09:44:39;99937.00;;;18.38;50.57
76623;BME280;73145;48.170;16.350;2023-10-09T09:47:14;99946.44;;;18.40;50.62
76623;BME280;73145;48.170;16.350;2023-10-09T09:49:50;99946.31;;;18.45;50.43
76623;BME280;73145;48.170;16.350;2023-10-09T09:52:17;99950.38;;;18.57;50.20
76623;BME280;73145;48.170;16.350;2023-10-09T09:54:44;99945.69;;;18.71;49.86
76623;BME280;73145;48.170;16.350;2023-10-09T09:57:12;99956.78;;;18.83;50.05
76623;BME280;73145;48.170;16.350;2023-10-09T09:59:39;99961.63;;;18.95;49.59
76623;BME280;73145;48.170;16.350;2023-10-09T10:02:07;99960.38;;;19.01;49.34
76623;BME280;73145;48.170;16.350;2023-10-09T10:04:38;99962.47;;;19.04;49.51
76623;BME280;73145;48.170;16.350;2023-10-09T10:07:08;99964.56;;;19.07;49.48
76623;BME280;73145;48.170;16.350;2023-10-09T10:09:42;99962.38;;;19.09;49.36
76623;BME280;73145;48.170;16.350;2023-10-09T10:12:13;99961.25;;;19.10;49.40
76623;BME280;73145;48.170;16.350;2023-10-09T10:14:53;99960.13;;;19.11;49.62
76623;BME280;73145;48.170;16.350;2023-10-09T10:17:24;99961.56;;;19.08;49.81
76623;BME280;73145;48.170;16.350;2023-10-09T10:22:29;99969.19;;;19.06;49.68
76623;BME280;73145;48.170;16.350;2023-10-09T10:24:56;99975.44;;;19.07;49.93
76623;BME280;73145;48.170;16.350;2023-10-09T10:27:26;99979.47;;;19.09;49.67
76623;BME280;73145;48.170;16.350;2023-10-09T10:32:53;99974.38;;;19.17;49.45
76623;BME280;73145;48.170;16.350;2023-10-09T10:35:20;99981.59;;;19.21;49.38
76623;BME280;73145;48.170;16.350;2023-10-09T10:37:57;99987.19;;;19.25;49.54
76623;BME280;73145;48.170;16.350;2023-10-09T10:40:37;99985.44;;;19.20;49.24
76623;BME280;73145;48.170;16.350;2023-10-09T10:43:15;99981.69;;;19.07;49.54
76623;BME280;73145;48.170;16.350;2023-10-09T10:46:07;99981.31;;;19.00;49.81
76623;BME280;73145;48.170;16.350;2023-10-09T10:48:52;99988.63;;;18.91;49.97
76623;BME280;73145;48.170;16.350;2023-10-09T10:51:36;99992.56;;;18.85;50.28
76623;BME280;73145;48.170;16.350;2023-10-09T10:54:07;99993.69;;;18.84;50.55
76623;BME280;73145;48.170;16.350;2023-10-09T10:56:51;99988.88;;;18.81;50.81
76623;BME280;73145;48.170;16.350;2023-10-09T10:59:20;99997.97;;;18.76;51.16
76623;BME280;73145;48.170;16.350;2023-10-09T11:01:49;99972.53;;;18.72;51.44
76623;BME280;73145;48.170;16.350;2023-10-09T11:04:20;99980.94;;;18.62;51.68
76623;BME280;73145;48.170;16.350;2023-10-09T11:06:55;99985.16;;;18.55;52.36
76623;BME280;73145;48.170;16.350;2023-10-09T11:09:26;99975.06;;;18.46;53.06
76623;BME280;73145;48.170;16.350;2023-10-09T11:12:05;99961.91;;;18.40;53.48
76623;BME280;73145;48.170;16.350;2023-10-09T11:14:49;99951.00;;;18.31;54.14
76623;BME280;73145;48.170;16.350;2023-10-09T11:17:37;99950.31;;;18.26;54.77
76623;BME280;73145;48.170;16.350;2023-10-09T11:20:07;99959.38;;;18.21;55.35
76623;BME280;73145;48.170;16.350;2023-10-09T11:22:52;99948.00;;;18.19;55.69
76623;BME280;73145;48.170;16.350;2023-10-09T11:25:37;99940.97;;;18.18;56.21
76623;BME280;73145;48.170;16.350;2023-10-09T11:28:23;99947.50;;;18.17;56.60
76623;BME280;73145;48.170;16.350;2023-10-09T11:31:08;99953.06;;;18.12;57.06
76623;BME280;73145;48.170;16.350;2023-10-09T11:36:14;99956.38;;;18.09;56.90
76623;BME280;73145;48.170;16.350;2023-10-09T11:38:41;99966.75;;;18.07;57.57
76623;BME280;73145;48.170;16.350;2023-10-09T11:41:17;99964.34;;;18.05;57.71
76623;BME280;73145;48.170;16.350;2023-10-09T11:43:54;99962.53;;;18.01;58.34
76623;BME280;73145;48.170;16.350;2023-10-09T11:46:23;99951.50;;;17.97;58.52
76623;BME280;73145;48.170;16.350;2023-10-09T11:49:17;99958.34;;;17.95;58.64
76623;BME280;73145;48.170;16.350;2023-10-09T11:51:46;99976.31;;;17.91;59.27
76623;BME280;73145;48.170;16.350;2023-10-09T11:54:34;99971.00;;;17.86;59.57
76623;BME280;73145;48.170;16.350;2023-10-09T11:57:01;99973.53;;;17.82;59.64
76623;BME280;73145;48.170;16.350;2023-10-09T11:59:31;99971.72;;;17.77;60.35
76623;BME280;73145;48.170;16.350;2023-10-09T12:02:09;99956.88;;;17.75;60.70
76623;BME280;73145;48.170;16.350;2023-10-09T12:04:41;99947.56;;;17.67;61.03
76623;BME280;73145;48.170;16.350;2023-10-09T12:07:10;99950.66;;;17.61;61.18
76623;BME280;73145;48.170;16.350;2023-10-09T12:09:37;99951.88;;;17.55;61.52
76623;BME280;73145;48.170;16.350;2023-10-09T12:12:07;99962.81;;;17.49;61.77
76623;BME280;73145;48.170;16.350;2023-10-09T12:14:36;99946.84;;;17.48;62.06
76623;BME280;73145;48.170;16.350;2023-10-09T12:17:04;99942.53;;;17.47;62.09
76623;BME280;73145;48.170;16.350;2023-10-09T12:21:58;99949.88;;;17.46;62.46
76623;BME280;73145;48.170;16.350;2023-10-09T12:24:26;99943.63;;;17.46;62.17
76623;BME280;73145;48.170;16.350;2023-10-09T12:26:51;99948.25;;;17.45;62.08
76623;BME280;73145;48.170;16.350;2023-10-09T12:29:18;99942.03;;;17.45;62.10
76623;BME280;73145;48.170;16.350;2023-10-09T12:31:45;99938.53;;;17.44;61.93
76623;BME280;73145;48.170;16.350;2023-10-09T12:34:10;99932.31;;;17.44;61.81
76623;BME280;73145;48.170;16.350;2023-10-09T12:36:44;99940.22;;;17.40;61.90
76623;BME280;73145;48.170;16.350;2023-10-09T12:39:11;99940.34;;;17.35;62.07
76623;BME280;73145;48.170;16.350;2023-10-09T12:41:43;99932.69;;;17.24;62.44
76623;BME280;73145;48.170;16.350;2023-10-09T12:44:09;99939.41;;;17.12;62.77
76623;BME280;73145;48.170;16.350;2023-10-09T12:46:44;99934.78;;;16.99;63.26
76623;BME280;73145;48.170;16.350;2023-10-09T12:49:19;99930.66;;;16.88;64.28
76623;BME280;73145;48.170;16.350;2023-10-09T12:52:08;99912.50;;;16.75;64.53
76623;BME280;73145;48.170;16.350;2023-10-09T12:55:03;99921.88;;;16.64;65.02
76623;BME280;73145;48.170;16.350;2023-10-09T12:57:32;99916.66;;;16.53;65.64
76623;BME280;73145;48.170;16.350;2023-10-09T12:59:57;99914.28;;;16.47;65.87
76623;BME280;73145;48.170;16.350;2023-10-09T13:02:23;99916.59;;;16.40;66.14
76623;BME280;73145;48.170;16.350;2023-10-09T13:04:55;99928.28;;;16.35;66.71
76623;BME280;73145;48.170;16.350;2023-10-09T13:07:20;99919.97;;;16.32;67.20
76623;BME280;73145;48.170;16.350;2023-10-09T13:09:47;99910.75;;;16.33;67.32
76623;BME280;73145;48.170;16.350;2023-10-09T13:12:34;99899.44;;;16.31;67.66
76623;BME280;73145;48.170;16.350;2023-10-09T13:15:04;99902.72;;;16.28;68.65
76623;BME280;73145;48.170;16.350;2023-10-09T13:20:18;99910.31;;;16.25;69.00
76623;BME280;73145;48.170;16.350;2023-10-09T13:22:45;99912.75;;;16.27;69.98
76623;BME280;73145;48.170;16.350;2023-10-09T13:25:13;99911.13;;;16.26;69.74
76623;BME280;73145;48.170;16.350;2023-10-09T13:27:44;99911.44;;;16.24;70.23
76623;BME280;73145;48.170;16.350;2023-10-09T13:30:19;99897.91;;;16.24;70.68
76623;BME280;73145;48.170;16.350;2023-10-09T13:32:53;99891.69;;;16.24;70.94
76623;BME280;73145;48.170;16.350;2023-10-09T13:35:19;99906.31;;;16.23;71.29
76623;BME280;73145;48.170;16.350;2023-10-09T13:37:45;99888.47;;;16.22;71.56